createdAt,value
2018-06-30T00:00:05.281Z,63.85
2018-06-30T00:02:33.063Z,70.47
2018-06-30T00:05:00.853Z,62.58
2018-06-30T00:07:28.656Z,66.57
2018-06-30T00:09:56.482Z,60.98
2018-06-30T00:12:54.952Z,67.90
2018-06-30T00:15:22.971Z,59.77
2018-06-30T00:17:51.088Z,54.45
2018-06-30T00:20:18.970Z,61.63
2018-06-30T00:22:46.846Z,62.65
2018-06-30T00:25:14.827Z,58.70
2018-06-30T00:27:42.875Z,61.83
2018-06-30T00:30:10.898Z,56.87
2018-06-30T00:32:38.958Z,59.00
2018-06-30T00:35:07.020Z,58.50
2018-06-30T00:37:34.941Z,63.27
2018-06-30T00:40:02.983Z,65.40
2018-06-30T00:42:31.022Z,60.25
2018-06-30T00:44:59.070Z,60.43
2018-06-30T00:47:26.946Z,63.25
2018-06-30T00:49:54.908Z,71.37
2018-06-30T00:52:22.792Z,65.03
2018-06-30T00:54:50.785Z,67.30
2018-06-30T00:57:18.686Z,79.60
2018-06-30T00:59:46.723Z,69.73
2018-06-30T01:02:14.639Z,71.57
2018-06-30T01:04:42.652Z,61.47
2018-06-30T01:07:10.684Z,70.90
2018-06-30T01:09:38.679Z,63.90
2018-06-30T01:12:06.599Z,75.57
2018-06-30T01:14:34.615Z,72.30
2018-06-30T01:17:02.603Z,76.30
2018-06-30T01:19:30.618Z,80.23
2018-06-30T01:21:58.638Z,82.60
2018-06-30T01:24:26.727Z,85.17
2018-06-30T01:26:54.677Z,82.20
2018-06-30T01:29:30.286Z,78.53
2018-06-30T01:31:58.080Z,77.50
2018-06-30T01:34:25.942Z,86.77
2018-06-30T01:36:53.754Z,94.87
2018-06-30T01:39:21.547Z,96.80
2018-06-30T01:41:49.384Z,87.50
2018-06-30T01:44:53.016Z,119.85
2018-06-30T01:47:20.970Z,106.40
2018-06-30T01:49:48.977Z,95.63
2018-06-30T01:52:16.901Z,95.73
2018-06-30T01:54:44.842Z,90.70
2018-06-30T01:57:12.749Z,96.60
2018-06-30T01:59:40.765Z,95.73
2018-06-30T02:02:08.685Z,91.07
2018-06-30T02:04:36.654Z,93.77
2018-06-30T02:07:04.942Z,91.70
2018-06-30T02:09:32.914Z,88.00
2018-06-30T02:12:00.865Z,93.03
2018-06-30T02:14:28.822Z,83.37
2018-06-30T02:16:56.757Z,86.73
2018-06-30T02:19:24.819Z,78.70
2018-06-30T02:21:52.809Z,82.20
2018-06-30T02:24:20.811Z,76.47
2018-06-30T02:26:48.737Z,72.47
2018-06-30T02:29:16.720Z,76.03
2018-06-30T02:31:44.643Z,76.07
2018-06-30T02:34:12.704Z,72.23
2018-06-30T02:36:43.847Z,70.03
2018-06-30T02:39:11.865Z,74.40
2018-06-30T02:41:39.733Z,70.80
2018-06-30T02:44:07.555Z,75.90
2018-06-30T02:46:35.315Z,79.67
2018-06-30T02:49:03.139Z,75.00
2018-06-30T02:51:30.993Z,80.47
2018-06-30T02:53:58.869Z,66.07
2018-06-30T02:56:26.686Z,64.50
2018-06-30T02:58:54.541Z,73.77
2018-06-30T03:01:22.359Z,76.05
2018-06-30T03:03:50.425Z,70.77
2018-06-30T03:06:18.548Z,79.40
2018-06-30T03:08:46.695Z,75.60
2018-06-30T03:11:14.801Z,80.93
2018-06-30T03:13:42.669Z,86.97
2018-06-30T03:16:13.512Z,83.43
2018-06-30T03:18:41.314Z,82.43
2018-06-30T03:21:09.127Z,87.37
2018-06-30T03:23:36.899Z,95.77
2018-06-30T03:26:04.804Z,103.60
2018-06-30T03:28:32.653Z,94.87
2018-06-30T03:31:00.606Z,91.67
2018-06-30T03:33:28.351Z,94.53
2018-06-30T03:35:56.216Z,96.70
2018-06-30T03:38:24.025Z,87.73
2018-06-30T03:40:51.821Z,97.20
2018-06-30T03:43:19.620Z,90.93
2018-06-30T03:45:47.389Z,80.17
2018-06-30T03:48:15.215Z,94.33
2018-06-30T03:50:43.008Z,79.47
2018-06-30T03:53:10.812Z,85.17
2018-06-30T03:55:38.694Z,80.57
2018-06-30T03:58:06.500Z,87.37
2018-06-30T04:00:34.349Z,86.28
2018-06-30T04:03:02.144Z,80.17
2018-06-30T04:05:30.020Z,76.13
2018-06-30T04:07:57.834Z,81.43
2018-06-30T04:10:25.570Z,99.33
2018-06-30T04:12:53.322Z,88.50
2018-06-30T04:15:21.137Z,87.93
2018-06-30T04:17:48.901Z,91.90
2018-06-30T04:20:16.644Z,74.83
2018-06-30T04:22:45.408Z,80.53
2018-06-30T04:25:13.209Z,67.67
2018-06-30T04:27:41.010Z,63.23
2018-06-30T04:30:08.902Z,57.73
2018-06-30T04:32:36.688Z,55.30
2018-06-30T04:35:04.846Z,49.65
2018-06-30T04:37:32.576Z,53.67
2018-06-30T04:40:10.998Z,42.73
2018-06-30T04:45:04.287Z,42.08
2018-06-30T04:47:32.122Z,38.83
2018-06-30T04:49:59.928Z,42.73
2018-06-30T04:52:27.744Z,39.57
2018-06-30T04:54:55.523Z,40.75
2018-06-30T04:57:23.286Z,37.10
2018-06-30T04:59:51.077Z,38.70
2018-06-30T05:02:18.841Z,33.50
2018-06-30T05:04:46.585Z,36.13
2018-06-30T05:07:14.348Z,44.77
2018-06-30T05:09:42.150Z,36.25
2018-06-30T05:12:09.898Z,30.17
2018-06-30T05:14:37.663Z,30.82
2018-06-30T05:17:05.498Z,38.50
2018-06-30T05:19:33.242Z,34.05
2018-06-30T05:22:01.094Z,35.25
2018-06-30T05:24:28.903Z,34.63
2018-06-30T05:26:56.693Z,33.67
2018-06-30T05:29:24.644Z,30.88
2018-06-30T05:31:52.467Z,31.27
2018-06-30T05:34:20.298Z,27.25
2018-06-30T05:36:48.128Z,29.57
2018-06-30T05:39:16.028Z,34.03
2018-06-30T05:41:43.877Z,27.27
2018-06-30T05:44:11.760Z,25.00
2018-06-30T05:46:39.626Z,30.77
2018-06-30T05:49:07.539Z,25.95
2018-06-30T05:51:35.298Z,27.93
2018-06-30T05:54:03.158Z,26.57
2018-06-30T05:56:31.000Z,26.02
2018-06-30T05:58:58.828Z,31.25
2018-06-30T06:01:26.772Z,28.15
2018-06-30T06:03:54.591Z,24.85
2018-06-30T06:06:22.380Z,34.10
2018-06-30T06:08:50.208Z,24.60
2018-06-30T06:11:18.009Z,28.20
2018-06-30T06:14:36.717Z,23.45
2018-06-30T06:17:04.805Z,31.50
2018-06-30T06:19:43.410Z,32.30
2018-06-30T06:22:11.197Z,28.83
2018-06-30T06:24:38.999Z,27.48
2018-06-30T06:27:06.832Z,23.90
2018-06-30T06:29:34.608Z,23.75
2018-06-30T06:32:02.460Z,26.05
2018-06-30T06:34:30.339Z,29.55
2018-06-30T06:36:58.095Z,20.60
2018-06-30T06:39:26.080Z,22.77
2018-06-30T06:41:53.860Z,24.05
2018-06-30T06:44:21.780Z,24.72
2018-06-30T06:46:49.593Z,22.77
2018-06-30T06:49:17.523Z,27.98
2018-06-30T06:51:45.508Z,26.30
2018-06-30T06:54:13.318Z,26.55
2018-06-30T06:56:41.251Z,34.00
2018-06-30T06:59:09.065Z,25.82
2018-06-30T07:01:36.883Z,27.25
2018-06-30T07:04:04.749Z,29.48
2018-06-30T07:06:54.167Z,24.77
2018-06-30T07:09:22.004Z,26.62
2018-06-30T07:11:49.852Z,27.02
2018-06-30T07:14:17.706Z,38.30
2018-06-30T07:16:49.591Z,36.33
2018-06-30T07:19:17.575Z,29.32
2018-06-30T07:21:45.497Z,28.38
2018-06-30T07:24:13.544Z,32.13
2018-06-30T07:26:41.409Z,29.65
2018-06-30T07:29:09.354Z,30.37
2018-06-30T07:32:09.861Z,29.52
2018-06-30T07:34:39.573Z,34.35
2018-06-30T07:37:07.360Z,29.82
2018-06-30T07:39:35.207Z,30.77
2018-06-30T07:42:03.033Z,30.17
2018-06-30T07:44:30.941Z,31.57
2018-06-30T07:46:58.797Z,28.98
2018-06-30T07:50:01.045Z,35.73
2018-06-30T07:52:28.998Z,33.10
2018-06-30T07:54:56.979Z,31.85
2018-06-30T07:57:24.935Z,37.45
2018-06-30T07:59:52.858Z,41.40
2018-06-30T08:02:21.070Z,37.08
2018-06-30T08:04:48.924Z,40.73
2018-06-30T08:07:16.782Z,41.68
2018-06-30T08:09:44.617Z,31.42
2018-06-30T08:12:12.397Z,30.35
2018-06-30T08:14:40.440Z,33.88
2018-06-30T08:17:08.362Z,36.70
2018-06-30T08:19:36.149Z,29.70
2018-06-30T08:22:04.033Z,39.67
2018-06-30T08:24:31.855Z,47.27
2018-06-30T08:26:59.658Z,38.45
2018-06-30T08:29:27.569Z,39.18
2018-06-30T08:31:55.298Z,37.80
2018-06-30T08:34:23.126Z,41.02
2018-06-30T08:36:51.024Z,38.17
2018-06-30T08:39:18.910Z,35.15
2018-06-30T08:41:46.697Z,34.35
2018-06-30T08:44:14.493Z,34.13
2018-06-30T08:46:42.357Z,37.42
2018-06-30T08:49:10.066Z,34.65
2018-06-30T08:51:37.896Z,37.67
2018-06-30T08:54:06.683Z,31.73
2018-06-30T08:56:34.513Z,32.23
2018-06-30T08:59:02.313Z,28.17
2018-06-30T09:01:30.112Z,27.30
2018-06-30T09:03:57.913Z,36.60
2018-06-30T09:07:06.259Z,36.65
2018-06-30T09:09:34.213Z,28.52
2018-06-30T09:12:39.014Z,25.48
2018-06-30T09:15:06.928Z,25.90
2018-06-30T09:17:34.915Z,26.65
2018-06-30T09:20:02.783Z,24.65
2018-06-30T09:22:30.598Z,24.70
2018-06-30T09:24:58.570Z,23.80
2018-06-30T09:27:26.430Z,23.75
2018-06-30T09:29:54.245Z,21.60
2018-06-30T09:32:24.058Z,23.80
2018-06-30T09:34:51.927Z,25.20
2018-06-30T09:37:19.814Z,22.90
2018-06-30T09:39:47.558Z,29.20
2018-06-30T09:42:15.401Z,23.92
2018-06-30T09:44:45.243Z,20.80
2018-06-30T09:47:13.044Z,22.70
2018-06-30T09:49:40.950Z,21.33
2018-06-30T09:52:08.788Z,23.77
2018-06-30T09:54:36.792Z,17.80
2018-06-30T09:57:04.769Z,18.87
2018-06-30T10:00:00.679Z,26.23
2018-06-30T10:02:28.582Z,24.43
2018-06-30T10:04:56.651Z,22.90
2018-06-30T10:07:24.826Z,27.50
2018-06-30T10:09:52.734Z,23.75
2018-06-30T10:12:20.543Z,19.82
2018-06-30T10:14:48.372Z,27.82
2018-06-30T10:17:16.202Z,26.70
2018-06-30T10:19:43.998Z,21.40
2018-06-30T10:22:18.905Z,19.30
2018-06-30T10:24:46.893Z,25.88
2018-06-30T10:27:14.798Z,28.73
2018-06-30T10:29:42.872Z,23.02
2018-06-30T10:32:10.866Z,21.23
2018-06-30T10:34:38.901Z,25.65
2018-06-30T10:37:07.127Z,23.45
2018-06-30T10:39:35.087Z,24.55
2018-06-30T10:42:03.155Z,25.85
2018-06-30T10:47:31.963Z,25.68
2018-06-30T10:49:59.968Z,23.92
2018-06-30T10:52:27.773Z,17.35
2018-06-30T10:54:55.596Z,26.35
2018-06-30T10:57:23.396Z,30.72
2018-06-30T10:59:52.601Z,23.10
2018-06-30T11:02:20.424Z,20.88
2018-06-30T11:04:48.298Z,20.00
2018-06-30T11:07:16.125Z,15.70
2018-06-30T11:09:44.928Z,22.90
2018-06-30T11:12:12.817Z,13.53
2018-06-30T11:14:41.085Z,12.15
2018-06-30T11:17:08.905Z,17.85
2018-06-30T11:19:37.725Z,19.98
2018-06-30T11:22:05.704Z,25.48
2018-06-30T11:24:34.448Z,13.05
2018-06-30T11:27:02.260Z,16.07
2018-06-30T11:29:30.102Z,14.87
2018-06-30T11:31:57.861Z,12.10
2018-06-30T11:34:26.612Z,13.70
2018-06-30T11:43:40.705Z,15.23
2018-06-30T11:46:08.503Z,11.03
2018-06-30T11:48:36.373Z,15.18
2018-06-30T11:51:04.188Z,11.28
2018-06-30T11:53:32.014Z,10.68
2018-06-30T11:55:59.841Z,13.03
2018-06-30T11:58:27.687Z,13.98
2018-06-30T12:00:57.516Z,14.15
2018-06-30T12:03:25.472Z,14.95
2018-06-30T12:05:53.536Z,15.72
2018-06-30T12:08:21.572Z,15.95
2018-06-30T12:10:49.881Z,12.28
2018-06-30T12:13:18.222Z,13.55
2018-06-30T12:15:46.565Z,9.28
2018-06-30T12:18:14.699Z,12.65
2018-06-30T12:20:43.273Z,11.00
2018-06-30T12:23:11.889Z,11.78
2018-06-30T12:25:40.974Z,11.22
2018-06-30T12:28:09.124Z,12.40
2018-06-30T12:30:37.467Z,11.40
2018-06-30T12:33:06.197Z,16.23
2018-06-30T12:35:34.638Z,24.15
2018-06-30T12:38:02.784Z,16.45
2018-06-30T12:40:31.044Z,19.67
2018-06-30T12:43:01.510Z,17.10
2018-06-30T12:45:29.616Z,22.37
2018-06-30T12:47:57.654Z,16.27
2018-06-30T12:50:25.437Z,16.90
2018-06-30T12:52:54.491Z,14.75
2018-06-30T12:55:22.310Z,14.83
2018-06-30T12:57:50.158Z,19.00
2018-06-30T13:00:18.033Z,17.57
2018-06-30T13:02:45.986Z,15.40
2018-06-30T13:05:13.820Z,15.85
2018-06-30T13:07:41.584Z,19.17
2018-06-30T13:10:09.389Z,18.10
2018-06-30T13:12:37.389Z,21.93
2018-06-30T13:15:05.355Z,13.30
2018-06-30T13:18:09.422Z,12.80
2018-06-30T13:20:48.163Z,15.23
2018-06-30T13:23:18.463Z,15.88
2018-06-30T13:25:46.214Z,13.72
2018-06-30T13:28:13.976Z,18.00
2018-06-30T13:30:41.969Z,11.25
2018-06-30T13:33:09.936Z,15.75
2018-06-30T13:35:38.090Z,14.05
2018-06-30T13:38:06.093Z,14.45
2018-06-30T13:40:34.074Z,10.23
2018-06-30T13:43:02.153Z,10.50
2018-06-30T13:49:28.107Z,9.55
2018-06-30T13:52:09.017Z,12.82
2018-06-30T13:54:36.853Z,15.43
2018-06-30T13:57:04.722Z,11.25
2018-06-30T13:59:32.518Z,9.60
2018-06-30T14:02:00.382Z,9.75
2018-06-30T14:04:28.207Z,7.83
2018-06-30T14:06:56.866Z,8.73
2018-06-30T14:11:50.406Z,10.72
2018-06-30T14:16:59.529Z,10.68
2018-06-30T14:19:27.382Z,6.50
2018-06-30T14:21:55.204Z,8.38
2018-06-30T14:24:23.998Z,10.05
2018-06-30T14:26:51.802Z,7.75
2018-06-30T14:29:19.643Z,6.75
2018-06-30T14:31:47.424Z,5.50
2018-06-30T14:34:15.198Z,8.45
2018-06-30T14:36:43.076Z,9.60
2018-06-30T14:39:12.635Z,11.12
2018-06-30T14:41:40.432Z,6.47
2018-06-30T14:44:08.360Z,6.70
2018-06-30T14:46:36.287Z,7.50
2018-06-30T14:49:04.497Z,12.50
2018-06-30T14:51:32.762Z,8.35
2018-06-30T14:54:00.707Z,6.90
2018-06-30T14:56:28.571Z,5.55
2018-06-30T14:58:56.402Z,8.15
2018-06-30T15:01:24.408Z,13.05
2018-06-30T15:03:52.166Z,6.90
2018-06-30T15:06:19.963Z,6.58
2018-06-30T15:09:01.247Z,9.50
2018-06-30T15:11:29.103Z,7.03
2018-06-30T15:14:47.332Z,6.12
2018-06-30T15:17:15.197Z,6.12
2018-06-30T15:19:43.033Z,10.00
2018-06-30T15:22:10.863Z,12.53
2018-06-30T15:24:38.661Z,8.98
2018-06-30T15:27:06.511Z,10.60
2018-06-30T15:29:34.341Z,7.35
2018-06-30T15:32:02.163Z,8.83
2018-06-30T15:34:30.953Z,10.90
2018-06-30T15:36:58.695Z,12.25
2018-06-30T15:39:26.503Z,7.40
2018-06-30T15:41:54.294Z,5.55
2018-06-30T15:44:22.088Z,8.30
2018-06-30T15:46:49.872Z,5.50
2018-06-30T15:49:19.634Z,8.10
2018-06-30T15:51:47.465Z,9.65
2018-06-30T15:57:41.342Z,12.03
2018-06-30T16:03:43.811Z,7.42
2018-06-30T16:06:25.091Z,7.22
2018-06-30T16:08:52.900Z,5.12
2018-06-30T16:11:20.787Z,7.03
2018-06-30T16:13:48.561Z,5.08
2018-06-30T16:16:20.060Z,10.08
2018-06-30T16:18:47.748Z,4.28
2018-06-30T16:21:15.646Z,6.20
2018-06-30T16:23:43.396Z,9.90
2018-06-30T16:26:11.188Z,5.60
2018-06-30T16:28:38.959Z,5.55
2018-06-30T16:31:07.239Z,7.67
2018-06-30T16:33:35.430Z,7.40
2018-06-30T16:36:03.266Z,5.08
2018-06-30T16:38:31.032Z,8.05
2018-06-30T16:41:39.209Z,5.55
2018-06-30T16:44:07.300Z,5.72
2018-06-30T16:46:35.968Z,7.47
2018-06-30T16:49:03.983Z,8.53
2018-06-30T16:51:31.913Z,4.58
2018-06-30T16:53:59.918Z,6.90
2018-06-30T16:56:48.864Z,6.15
2018-06-30T16:59:16.742Z,5.53
2018-06-30T17:01:44.520Z,6.00
2018-06-30T17:04:12.306Z,6.75
2018-06-30T17:06:40.176Z,6.60
2018-06-30T17:09:10.585Z,6.62
2018-06-30T17:11:38.512Z,2.95
2018-06-30T17:14:06.398Z,2.75
2018-06-30T17:16:34.269Z,7.97
2018-06-30T17:19:02.028Z,5.97
2018-06-30T17:21:29.853Z,3.20
2018-06-30T17:23:57.670Z,5.80
2018-06-30T17:26:25.687Z,4.47
2018-06-30T17:28:53.799Z,3.37
2018-06-30T17:31:21.601Z,4.85
2018-06-30T17:36:20.985Z,5.55
2018-06-30T17:38:48.902Z,3.60
2018-06-30T17:41:16.722Z,8.90
2018-06-30T17:43:44.536Z,5.15
2018-06-30T17:46:12.344Z,6.62
2018-06-30T17:48:40.134Z,5.55
2018-06-30T17:51:08.019Z,5.00
2018-06-30T17:53:35.866Z,6.28
2018-06-30T17:56:04.008Z,6.53
2018-06-30T17:58:31.893Z,11.83
2018-06-30T18:00:59.676Z,9.75
2018-06-30T18:03:27.436Z,5.12
2018-06-30T18:05:55.242Z,6.95
2018-06-30T18:08:23.075Z,5.22
2018-06-30T18:10:50.895Z,4.85
2018-06-30T18:13:18.788Z,4.28
2018-06-30T18:15:46.602Z,5.40
2018-06-30T18:18:14.431Z,3.95
2018-06-30T18:20:42.273Z,4.90
2018-06-30T18:23:10.071Z,4.50
2018-06-30T18:25:37.850Z,2.77
2018-06-30T18:28:22.400Z,2.58
2018-06-30T18:30:50.245Z,4.65
2018-06-30T18:33:18.073Z,3.35
2018-06-30T18:35:45.904Z,4.22
2018-06-30T18:38:14.733Z,4.20
2018-06-30T18:40:42.545Z,3.12
2018-06-30T18:43:10.327Z,2.00
2018-06-30T18:45:38.120Z,2.65
2018-06-30T18:48:05.936Z,1.98
2018-06-30T18:50:33.723Z,3.40
2018-06-30T18:53:01.513Z,2.33
2018-06-30T18:58:02.871Z,4.47
2018-06-30T19:00:30.702Z,6.00
2018-06-30T19:02:58.548Z,2.90
2018-06-30T19:05:26.327Z,3.92
2018-06-30T19:07:54.163Z,3.70
2018-06-30T19:10:22.081Z,4.50
2018-06-30T19:12:49.918Z,2.87
2018-06-30T19:15:17.700Z,5.92
2018-06-30T19:17:45.459Z,3.35
2018-06-30T19:20:13.365Z,3.77
2018-06-30T19:22:41.317Z,2.02
2018-06-30T19:25:09.094Z,3.67
2018-06-30T19:27:36.968Z,5.90
2018-06-30T19:30:05.165Z,3.15
2018-06-30T19:32:32.954Z,0.90
2018-06-30T19:38:02.718Z,1.30
2018-06-30T19:40:41.503Z,1.62
2018-06-30T19:43:09.375Z,3.02
2018-06-30T19:45:37.131Z,1.50
2018-06-30T19:48:04.956Z,1.85
2018-06-30T19:50:32.746Z,5.30
2018-06-30T19:53:00.501Z,1.72
2018-06-30T19:55:28.322Z,5.97
2018-06-30T19:57:56.056Z,4.40
2018-06-30T20:00:23.786Z,10.18
2018-06-30T20:02:51.576Z,0.72
2018-06-30T20:05:19.327Z,0.50
2018-06-30T20:07:53.395Z,4.37
2018-06-30T20:10:21.380Z,3.02
2018-06-30T20:12:49.153Z,2.05
2018-06-30T20:15:17.960Z,2.83
2018-06-30T20:18:35.797Z,1.15
2018-06-30T20:23:44.446Z,1.75
2018-06-30T20:26:12.254Z,0.57
2018-06-30T20:28:40.217Z,2.40
2018-06-30T20:31:07.865Z,2.47
2018-06-30T20:33:35.671Z,2.50
2018-06-30T20:36:03.694Z,8.38
2018-06-30T20:38:31.488Z,0.40
2018-06-30T20:40:59.319Z,1.47
2018-06-30T20:43:27.089Z,4.42
2018-06-30T20:46:29.735Z,2.47
2018-06-30T20:48:57.550Z,0.30
2018-06-30T20:51:25.428Z,0.45
2018-06-30T20:53:53.354Z,1.35
2018-06-30T20:56:21.165Z,2.50
2018-06-30T20:58:48.974Z,2.25
2018-06-30T21:01:16.861Z,0.30
2018-06-30T21:03:44.601Z,3.08
2018-06-30T21:06:13.427Z,1.00
2018-06-30T21:08:41.198Z,0.35
2018-06-30T21:11:09.062Z,1.07
2018-06-30T21:13:36.855Z,5.83
2018-06-30T21:16:04.729Z,0.20
2018-06-30T21:18:32.541Z,3.65
2018-06-30T21:21:00.334Z,4.85
2018-06-30T21:23:28.123Z,0.90
2018-06-30T21:25:55.971Z,2.62
2018-06-30T21:28:23.726Z,1.65
2018-06-30T21:30:51.555Z,1.27
2018-06-30T21:33:19.409Z,1.62
2018-06-30T21:35:47.146Z,0.47
2018-06-30T21:38:14.955Z,1.12
2018-06-30T21:40:42.719Z,0.57
2018-06-30T21:43:10.463Z,0.93
2018-06-30T21:45:38.240Z,1.45
2018-06-30T21:48:15.234Z,1.92
2018-06-30T21:50:43.074Z,2.70
2018-06-30T21:53:10.875Z,2.83
2018-06-30T21:55:38.707Z,4.40
2018-06-30T21:58:06.849Z,2.42
2018-06-30T22:00:47.501Z,0.30
2018-06-30T22:03:16.270Z,3.55
2018-06-30T22:05:44.082Z,7.85
2018-06-30T22:08:11.880Z,2.95
2018-06-30T22:10:39.648Z,1.52
2018-06-30T22:13:07.489Z,2.52
2018-06-30T22:15:35.731Z,0.75
2018-06-30T22:18:03.546Z,2.60
2018-06-30T22:20:31.970Z,1.40
2018-06-30T22:22:59.818Z,1.32
2018-06-30T22:25:27.632Z,1.75
2018-06-30T22:27:55.523Z,0.93
2018-06-30T22:30:23.453Z,2.47
2018-06-30T22:32:51.475Z,2.67
2018-06-30T22:35:19.430Z,0.30
2018-06-30T22:37:47.421Z,2.42
2018-06-30T22:40:17.313Z,0.30
2018-06-30T22:42:45.866Z,1.35
2018-06-30T22:45:14.463Z,1.35
2018-06-30T22:47:42.657Z,0.55
2018-06-30T22:50:10.587Z,1.75
2018-06-30T22:52:38.732Z,1.65
2018-06-30T22:55:06.739Z,1.60
2018-06-30T22:57:42.462Z,1.32
2018-06-30T23:03:25.582Z,1.50
2018-06-30T23:05:53.422Z,6.75
2018-06-30T23:08:21.209Z,1.57
2018-06-30T23:10:49.035Z,1.40
2018-06-30T23:13:16.880Z,3.30
2018-06-30T23:15:44.704Z,2.10
2018-06-30T23:18:12.516Z,2.25
2018-06-30T23:20:40.296Z,2.00
2018-06-30T23:23:09.158Z,2.60
2018-06-30T23:25:37.539Z,0.20
2018-06-30T23:28:05.504Z,1.52
2018-06-30T23:34:14.240Z,0.28
2018-06-30T23:36:42.067Z,1.10
2018-06-30T23:39:10.791Z,0.75
2018-06-30T23:41:38.752Z,2.55
2018-06-30T23:44:06.871Z,1.25
2018-06-30T23:46:34.690Z,3.75
2018-06-30T23:49:02.434Z,3.08
2018-06-30T23:51:30.241Z,1.65
2018-06-30T23:53:57.994Z,3.17
2018-06-30T23:56:25.774Z,0.57
2018-06-30T23:58:53.760Z,1.85
